createdAt,value
2018-12-14T00:01:09.030Z,32.33
2018-12-14T00:03:16.079Z,32.68
2018-12-14T00:05:23.094Z,33.00
2018-12-14T00:07:30.196Z,33.13
2018-12-14T00:09:37.249Z,33.56
2018-12-14T00:11:45.622Z,33.69
2018-12-14T00:13:52.989Z,33.98
2018-12-14T00:16:00.198Z,33.48
2018-12-14T00:18:07.264Z,33.17
2018-12-14T00:20:14.300Z,33.42
2018-12-14T00:22:21.318Z,33.25
2018-12-14T00:24:28.465Z,33.09
2018-12-14T00:26:35.529Z,32.34
2018-12-14T00:28:42.750Z,33.21
2018-12-14T00:30:49.629Z,32.58
2018-12-14T00:32:56.510Z,32.16
2018-12-14T00:35:04.084Z,33.80
2018-12-14T00:37:11.317Z,34.26
2018-12-14T00:41:40.175Z,34.00
2018-12-14T00:43:47.163Z,34.01
2018-12-14T00:45:54.200Z,33.38
2018-12-14T00:48:01.154Z,34.11
2018-12-14T00:50:09.292Z,34.01
2018-12-14T00:52:16.199Z,33.76
2018-12-14T00:54:23.437Z,33.46
2018-12-14T00:56:30.660Z,34.01
2018-12-14T00:58:37.880Z,34.45
2018-12-14T01:00:44.641Z,34.29
2018-12-14T01:02:51.754Z,34.72
2018-12-14T01:04:59.212Z,34.13
2018-12-14T01:07:06.449Z,34.56
2018-12-14T01:09:13.447Z,33.66
2018-12-14T01:11:21.512Z,34.02
2018-12-14T01:13:28.589Z,34.83
2018-12-14T01:15:36.094Z,34.02
2018-12-14T01:17:43.322Z,33.76
2018-12-14T01:19:51.025Z,34.42
2018-12-14T01:21:58.484Z,33.64
2018-12-14T01:24:05.614Z,33.93
2018-12-14T01:26:12.585Z,33.98
2018-12-14T01:28:19.862Z,34.37
2018-12-14T01:30:26.825Z,33.90
2018-12-14T01:32:33.891Z,33.35
2018-12-14T01:34:40.920Z,34.53
2018-12-14T01:36:47.775Z,34.70
2018-12-14T01:38:54.877Z,35.03
2018-12-14T01:41:02.128Z,34.91
2018-12-14T01:43:09.242Z,34.30
2018-12-14T01:45:16.328Z,33.72
2018-12-14T01:47:23.675Z,34.68
2018-12-14T01:49:30.560Z,33.97
2018-12-14T01:51:38.145Z,34.10
2018-12-14T01:53:45.432Z,34.10
2018-12-14T01:55:52.434Z,34.51
2018-12-14T01:58:00.094Z,34.39
2018-12-14T02:00:07.742Z,34.12
2018-12-14T02:02:15.993Z,35.17
2018-12-14T02:04:22.916Z,35.02
2018-12-14T02:06:29.926Z,34.74
2018-12-14T02:08:36.974Z,34.92
2018-12-14T02:10:43.789Z,34.67
2018-12-14T02:12:50.552Z,34.70
2018-12-14T02:14:57.486Z,35.02
2018-12-14T02:17:04.353Z,34.80
2018-12-14T02:19:11.490Z,35.24
2018-12-14T02:21:18.512Z,34.92
2018-12-14T02:23:25.730Z,35.22
2018-12-14T02:25:32.453Z,34.70
2018-12-14T02:27:39.288Z,35.06
2018-12-14T02:29:46.655Z,34.30
2018-12-14T02:31:54.169Z,34.48
2018-12-14T02:34:01.156Z,34.76
2018-12-14T02:36:08.245Z,34.74
2018-12-14T02:38:15.289Z,34.66
2018-12-14T02:40:22.907Z,33.96
2018-12-14T02:42:29.510Z,35.62
2018-12-14T02:44:37.574Z,35.37
2018-12-14T02:46:44.399Z,34.97
2018-12-14T02:48:51.349Z,35.41
2018-12-14T02:50:58.903Z,34.74
2018-12-14T02:53:05.966Z,34.83
2018-12-14T02:55:12.814Z,34.87
2018-12-14T02:57:19.976Z,35.58
2018-12-14T02:59:26.899Z,35.25
2018-12-14T03:01:33.896Z,35.61
2018-12-14T03:03:41.208Z,35.67
2018-12-14T03:05:48.010Z,35.64
2018-12-14T03:07:54.817Z,35.47
2018-12-14T03:10:01.659Z,35.35
2018-12-14T03:12:08.642Z,35.39
2018-12-14T03:14:15.360Z,35.59
2018-12-14T03:16:22.633Z,35.09
2018-12-14T03:18:29.325Z,35.67
2018-12-14T03:20:36.382Z,35.54
2018-12-14T03:22:43.250Z,35.31
2018-12-14T03:24:50.259Z,35.58
2018-12-14T03:26:57.011Z,34.95
2018-12-14T03:29:03.765Z,35.82
2018-12-14T03:31:10.416Z,35.41
2018-12-14T03:33:17.916Z,35.42
2018-12-14T03:35:24.821Z,34.82
2018-12-14T03:37:31.799Z,35.64
2018-12-14T03:39:38.510Z,35.20
2018-12-14T03:41:45.600Z,35.09
2018-12-14T03:43:52.921Z,36.51
2018-12-14T03:45:59.788Z,35.25
2018-12-14T03:48:06.635Z,35.23
2018-12-14T03:50:13.523Z,35.79
2018-12-14T03:52:20.610Z,35.29
2018-12-14T03:54:26.967Z,35.67
2018-12-14T03:56:33.877Z,35.31
2018-12-14T03:58:41.577Z,35.61
2018-12-14T04:00:48.951Z,34.98
2018-12-14T04:02:55.930Z,35.11
2018-12-14T04:05:02.969Z,35.23
2018-12-14T04:07:10.614Z,35.59
2018-12-14T04:09:17.601Z,35.67
2018-12-14T04:11:24.472Z,35.45
2018-12-14T04:13:31.397Z,35.71
2018-12-14T04:15:38.386Z,35.78
2018-12-14T04:17:45.527Z,35.30
2018-12-14T04:19:52.490Z,35.56
2018-12-14T04:21:59.392Z,35.87
2018-12-14T04:24:06.307Z,35.77
2018-12-14T04:26:13.501Z,35.21
2018-12-14T04:28:21.022Z,35.61
2018-12-14T04:30:27.821Z,35.84
2018-12-14T04:32:34.529Z,35.61
2018-12-14T04:34:41.379Z,35.90
2018-12-14T04:36:48.714Z,35.21
2018-12-14T04:38:55.404Z,35.79
2018-12-14T04:41:02.437Z,35.32
2018-12-14T04:43:09.326Z,36.04
2018-12-14T04:45:16.309Z,35.92
2018-12-14T04:47:23.492Z,37.09
2018-12-14T04:49:30.665Z,36.40
2018-12-14T04:51:37.154Z,35.81
2018-12-14T04:53:43.838Z,35.75
2018-12-14T04:55:50.494Z,36.35
2018-12-14T04:57:57.401Z,36.16
2018-12-14T05:00:04.190Z,35.87
2018-12-14T05:02:11.063Z,35.72
2018-12-14T05:04:17.926Z,35.39
2018-12-14T05:06:24.925Z,35.33
2018-12-14T05:08:31.871Z,33.96
2018-12-14T05:10:38.663Z,33.94
2018-12-14T05:12:46.304Z,34.50
2018-12-14T05:14:53.215Z,34.55
2018-12-14T05:17:00.290Z,34.28
2018-12-14T05:19:06.906Z,34.16
2018-12-14T05:21:14.187Z,34.01
2018-12-14T05:23:21.483Z,34.06
2018-12-14T05:25:28.326Z,34.41
2018-12-14T05:27:35.296Z,34.76
2018-12-14T05:29:42.299Z,34.62
2018-12-14T05:31:49.241Z,35.01
2018-12-14T05:33:56.432Z,34.62
2018-12-14T05:36:03.314Z,34.84
2018-12-14T05:38:10.754Z,35.23
2018-12-14T05:40:17.502Z,35.52
2018-12-14T05:42:24.349Z,34.76
2018-12-14T05:44:31.391Z,35.16
2018-12-14T05:46:38.476Z,35.47
2018-12-14T05:48:45.369Z,35.64
2018-12-14T05:50:52.039Z,35.66
2018-12-14T05:53:00.209Z,35.17
2018-12-14T05:55:07.405Z,35.02
2018-12-14T05:57:14.073Z,34.78
2018-12-14T05:59:21.075Z,34.94
2018-12-14T06:01:27.778Z,35.34
2018-12-14T06:03:34.502Z,34.92
2018-12-14T06:05:42.025Z,35.55
2018-12-14T06:07:49.322Z,35.25
2018-12-14T06:09:56.170Z,35.06
2018-12-14T06:12:03.690Z,36.23
2018-12-14T06:14:10.634Z,36.10
2018-12-14T06:16:17.442Z,35.79
2018-12-14T06:18:24.451Z,35.43
2018-12-14T06:20:31.358Z,35.70
2018-12-14T06:22:38.222Z,35.87
2018-12-14T06:24:45.002Z,35.68
2018-12-14T06:26:52.155Z,35.15
2018-12-14T06:28:58.956Z,34.19
2018-12-14T06:31:06.231Z,33.64
2018-12-14T06:33:12.909Z,35.21
2018-12-14T06:35:19.858Z,34.27
2018-12-14T06:37:27.009Z,35.22
2018-12-14T06:39:34.016Z,34.14
2018-12-14T06:41:40.811Z,34.97
2018-12-14T06:43:47.825Z,35.00
2018-12-14T06:45:54.674Z,34.21
2018-12-14T06:48:01.634Z,34.68
2018-12-14T06:50:08.809Z,34.84
2018-12-14T06:52:16.235Z,35.31
2018-12-14T06:54:23.192Z,35.35
2018-12-14T06:56:30.116Z,35.19
2018-12-14T06:58:36.939Z,35.39
2018-12-14T07:00:43.637Z,35.46
2018-12-14T07:02:50.487Z,35.12
2018-12-14T07:04:57.236Z,35.19
2018-12-14T07:07:04.361Z,35.08
2018-12-14T07:09:11.188Z,35.70
2018-12-14T07:11:17.963Z,35.69
2018-12-14T07:13:25.118Z,35.13
2018-12-14T07:15:32.134Z,35.06
2018-12-14T07:17:38.946Z,34.98
2018-12-14T07:19:45.886Z,34.96
2018-12-14T07:21:52.710Z,35.49
2018-12-14T07:23:59.720Z,35.18
2018-12-14T07:26:06.669Z,35.42
2018-12-14T07:28:13.769Z,35.06
2018-12-14T07:30:21.047Z,35.14
2018-12-14T07:32:27.779Z,36.27
2018-12-14T07:34:34.601Z,35.49
2018-12-14T07:36:41.710Z,35.67
2018-12-14T07:38:48.478Z,35.38
2018-12-14T07:40:55.185Z,35.80
2018-12-14T07:43:01.921Z,35.17
2018-12-14T07:45:09.201Z,34.83
2018-12-14T07:47:15.966Z,34.49
2018-12-14T07:49:23.566Z,33.50
2018-12-14T07:51:30.661Z,34.90
2018-12-14T07:53:37.458Z,34.94
2018-12-14T07:55:44.701Z,34.80
2018-12-14T07:57:52.185Z,34.62
2018-12-14T07:59:59.138Z,34.23
2018-12-14T08:02:05.971Z,34.09
2018-12-14T08:04:13.018Z,34.18
2018-12-14T08:06:19.614Z,34.48
2018-12-14T08:08:26.210Z,34.88
2018-12-14T08:10:33.119Z,35.18
2018-12-14T08:12:40.094Z,34.99
2018-12-14T08:14:47.314Z,34.77
2018-12-14T08:16:54.202Z,34.94
2018-12-14T08:19:01.289Z,35.01
2018-12-14T08:21:08.099Z,35.17
2018-12-14T08:23:15.406Z,35.63
2018-12-14T08:25:22.206Z,35.40
2018-12-14T08:27:29.192Z,35.46
2018-12-14T08:29:35.894Z,35.43
2018-12-14T08:31:43.108Z,35.81
2018-12-14T08:33:49.789Z,35.87
2018-12-14T08:35:56.424Z,34.94
2018-12-14T08:38:03.248Z,35.03
2018-12-14T08:40:10.422Z,35.12
2018-12-14T08:42:17.338Z,35.12
2018-12-14T08:44:25.065Z,35.27
2018-12-14T08:46:31.925Z,35.12
2018-12-14T08:48:38.870Z,35.67
2018-12-14T08:50:45.821Z,36.63
2018-12-14T08:52:52.970Z,36.03
2018-12-14T08:54:59.995Z,35.87
2018-12-14T08:57:06.812Z,36.25
2018-12-14T08:59:13.766Z,35.62
2018-12-14T09:01:20.184Z,35.72
2018-12-14T09:03:27.641Z,35.20
2018-12-14T09:05:34.458Z,35.90
2018-12-14T09:07:41.554Z,34.98
2018-12-14T09:09:48.546Z,34.74
2018-12-14T09:11:55.627Z,34.82
2018-12-14T09:14:02.363Z,34.63
2018-12-14T09:16:09.600Z,33.93
2018-12-14T09:18:16.840Z,33.49
2018-12-14T09:20:23.570Z,34.03
2018-12-14T09:22:30.339Z,33.44
2018-12-14T09:24:37.263Z,34.80
2018-12-14T09:26:44.434Z,34.28
2018-12-14T09:28:51.357Z,34.60
2018-12-14T09:30:58.475Z,35.38
2018-12-14T09:33:05.329Z,35.21
2018-12-14T09:35:12.241Z,35.19
2018-12-14T09:37:19.111Z,35.55
2018-12-14T09:39:26.066Z,35.73
2018-12-14T09:41:32.826Z,35.29
2018-12-14T09:43:40.069Z,35.91
2018-12-14T09:45:46.676Z,35.25
2018-12-14T09:47:53.762Z,35.47
2018-12-14T09:50:00.767Z,36.11
2018-12-14T09:52:07.798Z,36.30
2018-12-14T09:54:14.637Z,35.59
2018-12-14T09:56:21.431Z,36.24
2018-12-14T09:58:28.122Z,36.24
2018-12-14T10:00:35.182Z,35.52
2018-12-14T10:02:41.996Z,36.10
2018-12-14T10:04:48.977Z,35.61
2018-12-14T10:06:55.778Z,36.09
2018-12-14T10:09:02.666Z,35.93
2018-12-14T10:11:10.010Z,35.61
2018-12-14T10:13:17.378Z,35.35
2018-12-14T10:15:24.338Z,35.67
2018-12-14T10:17:31.246Z,36.22
2018-12-14T10:19:38.005Z,36.00
2018-12-14T10:21:44.914Z,36.41
2018-12-14T10:23:51.589Z,36.34
2018-12-14T10:25:58.818Z,35.75
2018-12-14T10:28:05.860Z,37.06
2018-12-14T10:30:12.736Z,36.61
2018-12-14T10:32:19.507Z,35.22
2018-12-14T10:34:26.513Z,34.82
2018-12-14T10:36:33.290Z,34.56
2018-12-14T10:38:39.945Z,33.74
2018-12-14T10:40:46.844Z,33.65
2018-12-14T10:42:53.859Z,35.25
2018-12-14T10:45:00.902Z,34.66
2018-12-14T10:47:07.442Z,35.49
2018-12-14T10:49:14.505Z,35.22
2018-12-14T10:51:21.471Z,35.35
2018-12-14T10:53:28.180Z,35.02
2018-12-14T10:55:34.976Z,35.35
2018-12-14T10:57:42.021Z,35.48
2018-12-14T10:59:49.137Z,35.42
2018-12-14T11:01:57.322Z,35.62
2018-12-14T11:04:04.164Z,36.19
2018-12-14T11:06:10.998Z,36.06
2018-12-14T11:08:17.937Z,35.98
2018-12-14T11:10:24.830Z,36.39
2018-12-14T11:12:31.941Z,36.28
2018-12-14T11:14:38.647Z,36.12
2018-12-14T11:16:45.239Z,36.25
2018-12-14T11:18:52.230Z,35.98
2018-12-14T11:20:59.034Z,36.35
2018-12-14T11:23:06.177Z,35.97
2018-12-14T11:25:12.831Z,36.75
2018-12-14T11:27:19.961Z,35.88
2018-12-14T11:29:26.977Z,36.16
2018-12-14T11:31:33.899Z,36.88
2018-12-14T11:33:40.649Z,36.45
2018-12-14T11:35:47.628Z,36.35
2018-12-14T11:37:54.290Z,36.28
2018-12-14T11:40:00.496Z,35.99
2018-12-14T11:42:08.315Z,36.78
2018-12-14T11:44:20.707Z,36.80
2018-12-14T11:46:24.296Z,36.38
2018-12-14T11:48:31.143Z,35.95
2018-12-14T11:50:38.241Z,36.51
2018-12-14T11:52:45.258Z,34.90
2018-12-14T11:54:51.813Z,34.20
2018-12-14T11:56:58.881Z,35.27
2018-12-14T11:59:05.897Z,34.15
2018-12-14T12:01:12.605Z,34.14
2018-12-14T12:03:19.402Z,34.08
2018-12-14T12:05:26.490Z,33.29
2018-12-14T12:07:33.357Z,33.46
2018-12-14T12:09:40.055Z,33.34
2018-12-14T12:11:47.134Z,35.05
2018-12-14T12:13:53.809Z,34.68
2018-12-14T12:16:00.466Z,34.74
2018-12-14T12:18:07.441Z,34.93
2018-12-14T12:20:14.411Z,35.49
2018-12-14T12:22:21.682Z,35.10
2018-12-14T12:24:28.496Z,34.73
2018-12-14T12:26:35.362Z,35.04
2018-12-14T12:28:41.994Z,35.93
2018-12-14T12:30:48.805Z,35.49
2018-12-14T12:32:55.825Z,35.82
2018-12-14T12:35:03.101Z,36.23
2018-12-14T12:37:09.767Z,36.46
2018-12-14T12:39:16.654Z,35.47
2018-12-14T12:41:23.547Z,34.37
2018-12-14T12:43:30.846Z,35.01
2018-12-14T12:45:37.810Z,34.64
2018-12-14T12:47:44.824Z,34.00
2018-12-14T12:49:51.603Z,34.04
2018-12-14T12:51:58.686Z,33.73
2018-12-14T12:54:05.571Z,34.74
2018-12-14T12:56:12.765Z,35.27
2018-12-14T12:58:19.537Z,33.84
2018-12-14T13:00:26.393Z,32.45
2018-12-14T13:02:33.298Z,32.96
2018-12-14T13:04:39.917Z,32.73
2018-12-14T13:06:47.066Z,32.61
2018-12-14T13:08:53.841Z,32.42
2018-12-14T13:11:00.813Z,32.83
2018-12-14T13:13:07.474Z,32.00
2018-12-14T13:15:14.508Z,32.39
2018-12-14T13:17:22.206Z,33.43
2018-12-14T13:19:29.277Z,31.95
2018-12-14T13:21:36.059Z,31.98
2018-12-14T13:23:42.945Z,32.17
2018-12-14T13:25:49.699Z,31.90
2018-12-14T13:27:56.451Z,33.22
2018-12-14T13:30:03.533Z,33.13
2018-12-14T13:32:11.130Z,32.75
2018-12-14T13:34:17.877Z,32.14
2018-12-14T13:36:24.500Z,33.11
2018-12-14T13:38:31.671Z,32.13
2018-12-14T13:40:39.259Z,32.93
2018-12-14T13:42:46.177Z,34.26
2018-12-14T13:44:53.071Z,33.62
2018-12-14T13:47:00.137Z,33.90
2018-12-14T13:49:06.926Z,34.04
2018-12-14T13:51:14.079Z,34.44
2018-12-14T13:53:20.825Z,35.25
2018-12-14T13:55:27.630Z,35.57
2018-12-14T13:57:34.718Z,35.59
2018-12-14T13:59:41.578Z,36.00
2018-12-14T14:01:48.480Z,35.54
2018-12-14T14:03:55.347Z,35.84
2018-12-14T14:06:02.303Z,35.59
2018-12-14T14:08:09.277Z,35.07
2018-12-14T14:10:16.074Z,35.23
2018-12-14T14:12:23.249Z,34.20
2018-12-14T14:14:30.039Z,34.61
2018-12-14T14:16:36.680Z,35.15
2018-12-14T14:18:43.500Z,33.48
2018-12-14T14:20:50.456Z,33.53
2018-12-14T14:22:57.325Z,32.96
2018-12-14T14:25:04.238Z,33.33
2018-12-14T14:27:11.185Z,34.13
2018-12-14T14:29:18.033Z,33.96
2018-12-14T14:31:25.097Z,33.91
2018-12-14T14:33:32.483Z,34.16
2018-12-14T14:35:39.984Z,34.53
2018-12-14T14:37:47.116Z,34.76
2018-12-14T14:39:53.953Z,34.80
2018-12-14T14:42:00.205Z,35.00
2018-12-14T14:44:06.954Z,35.05
2018-12-14T14:46:13.603Z,34.76
2018-12-14T14:48:20.778Z,35.00
2018-12-14T14:50:27.935Z,34.97
2018-12-14T14:52:34.814Z,34.92
2018-12-14T14:54:41.547Z,35.22
2018-12-14T14:56:48.503Z,35.39
2018-12-14T14:58:55.329Z,35.01
2018-12-14T15:01:01.971Z,36.05
2018-12-14T15:03:08.909Z,35.55
2018-12-14T15:05:16.361Z,35.52
2018-12-14T15:07:23.390Z,35.89
2018-12-14T15:12:05.051Z,35.90
2018-12-14T15:14:12.164Z,36.14
2018-12-14T15:16:19.084Z,35.82
2018-12-14T15:18:25.865Z,35.78
2018-12-14T15:20:32.893Z,35.54
2018-12-14T15:22:39.950Z,35.51
2018-12-14T15:24:46.567Z,35.70
2018-12-14T15:26:53.331Z,34.85
2018-12-14T15:29:00.323Z,34.76
2018-12-14T15:31:07.218Z,34.63
2018-12-14T15:33:13.999Z,34.26
2018-12-14T15:35:20.834Z,33.77
2018-12-14T15:37:27.624Z,32.89
2018-12-14T15:39:35.100Z,33.59
2018-12-14T15:41:41.986Z,35.79
2018-12-14T15:43:48.981Z,34.25
2018-12-14T15:45:56.038Z,34.20
2018-12-14T15:48:03.223Z,34.02
2018-12-14T15:50:10.712Z,34.29
2018-12-14T15:52:17.443Z,34.82
2018-12-14T15:54:24.630Z,34.88
2018-12-14T15:56:31.535Z,34.50
2018-12-14T15:58:38.529Z,34.55
2018-12-14T16:00:45.216Z,34.55
2018-12-14T16:02:52.086Z,35.31
2018-12-14T16:04:58.854Z,35.71
2018-12-14T16:07:05.362Z,35.66
2018-12-14T16:09:12.328Z,35.51
2018-12-14T16:11:19.387Z,35.48
2018-12-14T16:13:26.283Z,35.65
2018-12-14T16:15:33.304Z,36.11
2018-12-14T16:17:40.355Z,35.92
2018-12-14T16:19:47.178Z,36.37
2018-12-14T16:21:54.191Z,35.83
2018-12-14T16:24:01.170Z,35.61
2018-12-14T16:26:07.846Z,36.73
2018-12-14T16:28:14.772Z,35.39
2018-12-14T16:30:22.202Z,36.05
2018-12-14T16:32:28.846Z,36.18
2018-12-14T16:34:36.062Z,36.28
2018-12-14T16:36:43.262Z,36.02
2018-12-14T16:38:50.363Z,35.95
2018-12-14T16:40:57.326Z,36.72
2018-12-14T16:43:04.566Z,36.32
2018-12-14T16:45:11.522Z,35.71
2018-12-14T16:47:18.632Z,36.47
2018-12-14T16:49:25.538Z,35.65
2018-12-14T16:51:32.484Z,35.19
2018-12-14T16:53:44.006Z,34.38
2018-12-14T16:55:51.672Z,33.45
2018-12-14T16:57:58.598Z,33.94
2018-12-14T17:00:05.767Z,33.59
2018-12-14T17:02:12.515Z,33.79
2018-12-14T17:04:19.461Z,34.25
2018-12-14T17:06:26.166Z,34.53
2018-12-14T17:08:33.272Z,34.76
2018-12-14T17:10:40.090Z,33.67
2018-12-14T17:12:47.191Z,33.86
2018-12-14T17:14:53.718Z,34.13
2018-12-14T17:17:00.494Z,34.25
2018-12-14T17:19:07.335Z,34.87
2018-12-14T17:21:14.224Z,34.41
2018-12-14T17:23:20.946Z,34.70
2018-12-14T17:25:28.058Z,34.08
2018-12-14T17:27:35.028Z,34.56
2018-12-14T17:29:42.314Z,34.71
2018-12-14T17:31:49.470Z,35.61
2018-12-14T17:33:56.341Z,35.05
2018-12-14T17:36:03.063Z,35.49
2018-12-14T17:38:09.959Z,35.00
2018-12-14T17:40:17.082Z,35.83
2018-12-14T17:42:24.016Z,35.67
2018-12-14T17:44:31.276Z,35.73
2018-12-14T17:46:38.177Z,35.85
2018-12-14T17:48:45.310Z,35.99
2018-12-14T17:50:52.167Z,35.90
2018-12-14T17:52:58.819Z,35.82
2018-12-14T17:55:05.979Z,35.52
2018-12-14T17:57:12.642Z,35.85
2018-12-14T17:59:19.590Z,36.14
2018-12-14T18:01:26.667Z,36.24
2018-12-14T18:03:33.517Z,36.73
2018-12-14T18:05:40.217Z,36.77
2018-12-14T18:07:47.281Z,36.79
2018-12-14T18:09:53.985Z,37.15
2018-12-14T18:12:01.129Z,36.65
2018-12-14T18:14:08.045Z,36.85
2018-12-14T18:16:14.944Z,36.65
2018-12-14T18:18:21.582Z,36.83
2018-12-14T18:20:28.942Z,36.72
2018-12-14T18:22:36.347Z,36.33
2018-12-14T18:24:43.308Z,37.14
2018-12-14T18:26:50.133Z,36.68
2018-12-14T18:28:56.970Z,36.24
2018-12-14T18:31:03.722Z,35.90
2018-12-14T18:33:10.425Z,36.04
2018-12-14T18:35:17.652Z,35.29
2018-12-14T18:37:24.331Z,35.39
2018-12-14T18:39:31.082Z,34.63
2018-12-14T18:41:38.215Z,34.48
2018-12-14T18:43:44.941Z,33.60
2018-12-14T18:45:53.409Z,34.25
2018-12-14T18:48:00.923Z,33.97
2018-12-14T18:50:08.995Z,33.53
2018-12-14T18:52:15.815Z,33.97
2018-12-14T18:54:22.868Z,35.42
2018-12-14T18:56:29.909Z,35.32
2018-12-14T18:58:36.734Z,34.63
2018-12-14T19:00:43.519Z,34.31
2018-12-14T19:02:50.434Z,35.31
2018-12-14T19:04:57.197Z,36.48
2018-12-14T19:07:03.858Z,34.27
2018-12-14T19:09:11.061Z,35.32
2018-12-14T19:11:17.974Z,34.59
2018-12-14T19:13:24.910Z,35.15
2018-12-14T19:15:31.714Z,35.27
2018-12-14T19:17:39.032Z,34.74
2018-12-14T19:19:45.750Z,35.14
2018-12-14T19:21:52.622Z,35.54
2018-12-14T19:23:59.262Z,35.04
2018-12-14T19:26:05.991Z,35.35
2018-12-14T19:28:12.794Z,35.88
2018-12-14T19:30:19.078Z,35.90
2018-12-14T19:32:25.949Z,35.82
2018-12-14T19:34:32.695Z,35.98
2018-12-14T19:36:39.533Z,36.00
2018-12-14T19:38:46.665Z,36.03
2018-12-14T19:40:53.701Z,36.52
2018-12-14T19:43:00.724Z,36.21
2018-12-14T19:45:07.972Z,36.61
2018-12-14T19:47:14.954Z,35.89
2018-12-14T19:49:21.792Z,35.92
2018-12-14T19:51:28.882Z,36.03
2018-12-14T19:53:35.822Z,36.04
2018-12-14T19:55:42.833Z,36.29
2018-12-14T19:57:49.543Z,36.56
2018-12-14T19:59:56.475Z,36.70
2018-12-14T20:02:03.524Z,36.63
2018-12-14T20:04:10.358Z,36.38
2018-12-14T20:06:17.302Z,36.33
2018-12-14T20:08:24.021Z,36.76
2018-12-14T20:10:30.862Z,36.65
2018-12-14T20:12:37.933Z,36.16
2018-12-14T20:14:44.787Z,37.26
2018-12-14T20:16:51.421Z,36.26
2018-12-14T20:18:58.417Z,35.29
2018-12-14T20:21:05.144Z,34.97
2018-12-14T20:23:11.914Z,34.85
2018-12-14T20:25:18.953Z,34.19
2018-12-14T20:27:25.622Z,34.65
2018-12-14T20:29:32.374Z,34.46
2018-12-14T20:31:39.376Z,35.21
2018-12-14T20:33:46.999Z,36.94
2018-12-14T20:35:53.800Z,34.91
2018-12-14T20:38:00.589Z,35.50
2018-12-14T20:40:07.650Z,35.98
2018-12-14T20:42:14.411Z,35.06
2018-12-14T20:44:21.077Z,35.04
2018-12-14T20:46:27.928Z,36.05
2018-12-14T20:48:34.946Z,36.02
2018-12-14T20:50:42.113Z,35.10
2018-12-14T20:52:49.110Z,35.38
2018-12-14T20:54:56.049Z,35.08
2018-12-14T20:57:02.873Z,35.74
2018-12-14T20:59:09.753Z,36.38
2018-12-14T21:01:16.507Z,35.60
2018-12-14T21:03:23.215Z,36.20
2018-12-14T21:05:30.372Z,35.84
2018-12-14T21:07:37.281Z,35.93
2018-12-14T21:09:44.441Z,36.44
2018-12-14T21:11:51.203Z,36.23
2018-12-14T21:13:58.004Z,36.87
2018-12-14T21:16:04.742Z,36.20
2018-12-14T21:18:11.526Z,35.99
2018-12-14T21:20:18.308Z,36.01
2018-12-14T21:22:25.057Z,36.41
2018-12-14T21:24:31.805Z,35.62
2018-12-14T21:26:38.762Z,36.04
2018-12-14T21:28:45.610Z,35.04
2018-12-14T21:30:52.483Z,35.11
2018-12-14T21:32:59.306Z,33.95
2018-12-14T21:35:06.245Z,33.73
2018-12-14T21:37:13.070Z,33.99
2018-12-14T21:39:20.062Z,34.55
2018-12-14T21:41:26.979Z,34.93
2018-12-14T21:43:33.760Z,35.71
2018-12-14T21:45:40.754Z,35.56
2018-12-14T21:47:47.872Z,35.43
2018-12-14T21:49:54.667Z,35.30
2018-12-14T21:52:01.509Z,35.21
2018-12-14T21:54:08.305Z,35.04
2018-12-14T21:56:15.387Z,35.29
2018-12-14T21:58:22.624Z,35.18
2018-12-14T22:00:29.498Z,35.90
2018-12-14T22:02:36.565Z,35.22
2018-12-14T22:04:43.358Z,35.27
2018-12-14T22:06:50.032Z,35.67
2018-12-14T22:08:56.830Z,35.27
2018-12-14T22:11:03.683Z,35.21
2018-12-14T22:13:10.670Z,35.41
2018-12-14T22:15:17.688Z,35.75
2018-12-14T22:17:24.563Z,35.76
2018-12-14T22:19:34.497Z,35.57
2018-12-14T22:21:41.334Z,35.40
2018-12-14T22:23:48.073Z,35.52
2018-12-14T22:25:55.010Z,35.92
2018-12-14T22:28:01.923Z,35.49
2018-12-14T22:30:09.075Z,35.91
2018-12-14T22:32:16.068Z,35.77
2018-12-14T22:34:22.718Z,35.41
2018-12-14T22:36:29.697Z,35.53
2018-12-14T22:38:36.713Z,35.37
2018-12-14T22:40:43.750Z,35.49
2018-12-14T22:42:50.632Z,35.55
2018-12-14T22:44:57.327Z,35.98
2018-12-14T22:47:04.023Z,35.68
2018-12-14T22:49:10.946Z,35.42
2018-12-14T22:51:17.954Z,35.42
2018-12-14T22:53:24.937Z,35.78
2018-12-14T22:55:31.868Z,34.71
2018-12-14T22:57:38.904Z,33.99
2018-12-14T22:59:45.672Z,33.91
2018-12-14T23:01:52.704Z,33.61
2018-12-14T23:03:59.599Z,33.57
2018-12-14T23:06:06.568Z,33.71
2018-12-14T23:08:13.510Z,33.14
2018-12-14T23:10:20.273Z,32.49
2018-12-14T23:12:27.286Z,32.76
2018-12-14T23:14:34.758Z,32.80
2018-12-14T23:16:41.859Z,32.21
2018-12-14T23:18:48.561Z,32.45
2018-12-14T23:20:55.212Z,33.29
2018-12-14T23:23:02.091Z,32.89
2018-12-14T23:25:08.820Z,33.09
2018-12-14T23:27:15.641Z,34.70
2018-12-14T23:29:22.702Z,33.32
2018-12-14T23:31:29.693Z,33.93
2018-12-14T23:33:36.757Z,34.64
2018-12-14T23:35:43.629Z,34.11
2018-12-14T23:37:50.406Z,34.09
2018-12-14T23:39:57.330Z,34.33
2018-12-14T23:42:04.484Z,34.08
2018-12-14T23:44:11.598Z,33.98
2018-12-14T23:46:18.721Z,34.44
2018-12-14T23:48:25.717Z,34.44
2018-12-14T23:50:32.589Z,34.44
2018-12-14T23:52:39.386Z,35.15
2018-12-14T23:54:46.110Z,34.97
2018-12-14T23:56:52.803Z,35.55
2018-12-14T23:58:59.989Z,35.27
